Vandiver, Alabama
Current Conditions -  °F | °C
As of 2:53 AM on Friday 24 Oct 2014 (Local Time) from KBHM Reporting Station
Broken Clouds Broken Clouds  
Wind Chill: 53°   Ceiling: 20000
Heat Index: 53°   Visibility: 10mi
Dew Point: 48°   Wind: 3mph
Humidity: 83%   Direction: 330°NNW
Pressure: 30.09"   Gusts: NA
Location:  33.47°N, 86.51°W
Report Text: KBHM 240753Z 33003KT 10SM BKN200 12/09 A3009 RMK AO2 SLP184 T01170089
Loading
Personal Weather Stations






























Interactive Weather Map New forecast layout! Learn more

10-Day Weather Forecast

Advertisements
Track Severe Weather on mobile